KADW/ADW METAR and TAF weather

Enter ICAO airport designator
Station Type Date Time Source
KADW METAR 2018/09/21 17:56 UTC NOAA

KADW 211756Z AUTO 16009KT 10SM SCT013 OVC026 22/19 A3015 RMK AO2 CIG 013V026 SLP215 60015 T02200190 10220 20196 57024 $


Station Type Date Time Source
KADW Decoded METAR 2018/09/21 17:56 UTC NOAA

Camp Springs / Andrews Air Force Base, MD, United States (KADW) 38-49N 076-51W 88M
Sep 21, 2018 - 01:56 PM EDT / 2018.09.21 1756 UTC
Wind: from the SSE (160 degrees) at 10 MPH (9 KT):0
Visibility: 10 mile(s):0
Sky conditions: overcast
Temperature: 71.6 F (22.0 C)
Dew Point: 66.2 F (19.0 C)
Relative Humidity: 83%
Pressure (altimeter): 30.15 in. Hg (1020 hPa)
Pressure tendency: 0.07 inches (2.4 hPa) lower than three hours ago
ob: KADW 211756Z AUTO 16009KT 10SM SCT013 OVC026 22/19 A3015 RMK AO2 CIG 013V026 SLP215 60015 T02200190 10220 20196 57024
cycle: 18

Station Type Date Time Source
KADW TAF 2018/09/21 17:13 UTC NOAA

TAF KADW 211700Z 2117/2223 19010G15KT 9999 BKN014 OVC025 QNH3006INS
BECMG 2117/2119 19010G15KT 9999 OVC025 QNH3015INS
BECMG 2202/2203 21006KT 9999 BKN015 OVC035 WS020/25035KT QNH3000INS
BECMG 2210/2211 27009KT 9999 BKN009 QNH3005INS
BECMG 2211/2212 35012KT 9999 BKN010 OVC030 QNH3009INS
BECMG 2213/2214 36010G15KT 9999 SCT030 OVC045 QNH3014INS TX26/2121Z TN20/2212Z


Example: see airport list